Gillette, WY

11:27 PM MDT on July 27, 2014 (GMT -0600)
Gillette-Campbell County (KGCC) Elev 4364 ft | 44.34 °N, 105.54 °W | Change Station

Current weather conditions updated 34 minutes ago

Clear
Clear
58 °F
Feels Like 58 °F
N
0
Wind Variable Wind from North

Tomorrow is forecast to be Warmer than today.

Today
High -- | Low -- °F
--% Chance of Precip.
Yesterday
High -- | Low -- °F
Precip. -- in
5:43 AM 8:33 PM
New Moon, 1% visible
Pressure 30.22 in
Visibility 10.0 miles
Clouds Clear
Dew Point 43 °F
Humidity 58%
Rainfall 0.00 in
Snow Depth Not available.
UV 0 out of 12
Pollen 6.20 out of 12
Air Quality Not available.
Flu Activity Not available.
METAR KGCC 280453Z AUTO 00000KT 10SM CLR 14/06 A3032 RMK AO2 SLP231 T01440061 $

More Conditions Fewer Conditions

Pressure 30.22 in
Visibility 10.0 miles
Clouds Clear
Dew Point 43 °F
Humidity 58%
Rainfall 0.00 in
Snow Depth Not available.
UV 0 out of 12
Pollen 6.20 out of 12
Air Quality Not available.
Flu Activity Not available.
METAR KGCC 280453Z AUTO 00000KT 10SM CLR 14/06 A3032 RMK AO2 SLP231 T01440061 $

More Conditions Fewer Conditions

10-Day Weather Forecast

Almanac

Astronomy

Jul. 27, 2014 Rise Set
Actual Time 5:43 AM MDT 8:33 PM MDT
Civil Twilight 5:09 AM MDT 9:07 PM MDT
Nautical Twilight 4:26 AM MDT 9:50 PM MDT
Astronomical Twilight 3:35 AM MDT 10:40 PM MDT
Moon 6:37 AM MDT (7/27) 8:39 PM MDT (7/27)
Length of Visible Light 15h 57m
Length of Day
14h 50m
Tomorrow will be 2m 13s shorter.
New Moon, 1% of the Moon is Illuminated
Jul 28
New Moon
Aug 3
First Quarter
Aug 10
Full
Aug 17
Last Quarter
Aug 25
New

Yesterday's Extremes

State Highs State Lows

Community

WunderPhotos

Upload Photos

1,738,309 photos uploaded!

Nearby

Snow Depth

Station Depth Elevation
Casper Mountain 0 in 7850 ft
Reno Hill 0 in 8500 ft
Townsend Creek 1 in 8700 ft
Burroughs Creek 0 in 8750 ft
Sand Lake 0 in 10050 ft

Earthquake Activity

City Distance Mag. Time & Date
No recent earthquake activity has been reported nearby.
Minimum magnitude displayed is 2.5.

Coastal Water Temperatures

Place Temperature
No Stations Reporting

Nearby Weather Stations

Station Location Temp. Heat Index Dew Point Humidity Wind Precip. Elev Updated Type
RAWS ECHETA WY, Gillette, WY 72 °F 76 °F 41 °F 32% East  at  12 mph 0.00 in / hr 4396 ft 9:51 PM MDT MADIS

Show More Stations Show Fewer Stations